Time;durP1;ratioP1;P1;durP2;ratioP2;P2;SDS_P1;SDS_P2;PMS_P1;PMS_P2;Temp;Humidity;BMP_temperature;BMP_pressure;BME280_temperature;BME280_humidity;BME280_pressure;Samples;Min_cycle;Max_cycle;Signal;HPM_P1;HPM_P2
2022/06/20 00:01:36;;;;;;;4.78;3.70;;;;;;;15.68;71.47;98448.28;5115322;27;20564;-68
2022/06/20 00:04:01;;;;;;;5.82;3.53;;;;;;;15.61;71.21;98448.13;5106679;27;20047;-70
2022/06/20 00:06:26;;;;;;;6.65;3.50;;;;;;;15.60;70.83;98439.22;5096169;27;20057;-67
2022/06/20 00:08:51;;;;;;;3.63;3.13;;;;;;;15.60;70.22;98441.91;5098821;27;20049;-70
2022/06/20 00:11:23;;;;;;;6.32;3.25;;;;;;;15.63;69.66;98458.69;5100762;27;20049;-64
2022/06/20 00:13:51;;;;;;;7.15;3.30;;;;;;;15.55;69.73;98455.03;5118547;27;20122;-62
2022/06/20 00:16:18;;;;;;;4.95;3.42;;;;;;;15.47;70.28;98454.97;5106595;27;20186;-64
2022/06/20 00:18:45;;;;;;;5.05;3.70;;;;;;;15.33;70.85;98455.69;5119470;27;20043;-68
2022/06/20 00:21:13;;;;;;;6.55;4.13;;;;;;;15.21;71.87;98438.22;5101093;27;20043;-69
2022/06/20 00:23:38;;;;;;;6.35;4.28;;;;;;;15.10;72.00;98433.19;5119119;27;20163;-69
2022/06/20 00:26:02;;;;;;;8.55;3.83;;;;;;;15.01;72.38;98434.19;5119541;27;20129;-69
2022/06/20 00:28:27;;;;;;;7.13;3.95;;;;;;;14.94;73.04;98433.19;5119648;27;20038;-68
2022/06/20 00:30:52;;;;;;;11.77;3.78;;;;;;;14.87;73.73;98433.00;5119160;27;20047;-71
2022/06/20 00:33:16;;;;;;;8.77;4.97;;;;;;;14.85;73.80;98443.91;5115321;27;20038;-72
2022/06/20 00:35:41;;;;;;;7.63;3.88;;;;;;;14.82;74.15;98424.59;5089879;27;20039;-70
2022/06/20 00:38:11;;;;;;;8.27;3.92;;;;;;;14.82;74.69;98430.81;5080860;27;20039;-70
2022/06/20 00:40:46;;;;;;;7.55;4.32;;;;;;;14.79;74.45;98425.78;5099270;27;20059;-72
2022/06/20 00:43:21;;;;;;;6.53;4.22;;;;;;;14.77;74.71;98410.88;5063962;27;20054;-71
2022/06/20 00:46:12;;;;;;;7.63;3.40;;;;;;;14.77;74.09;98400.97;5119801;27;20049;-72
2022/06/20 00:49:07;;;;;;;5.70;4.07;;;;;;;14.75;74.96;98419.09;5119266;27;20162;-72
2022/06/20 00:52:05;;;;;;;6.35;4.10;;;;;;;14.68;75.89;98423.41;5110098;27;20091;-72
2022/06/20 00:55:24;;;;;;;6.25;4.70;;;;;;;14.66;75.89;98438.84;5121780;27;20135;-71
2022/06/20 00:58:30;;;;;;;5.03;3.20;;;;;;;14.78;76.09;98445.59;5035824;28;20096;-70
2022/06/20 01:01:19;;;;;;;8.77;4.35;;;;;;;14.72;76.53;98440.88;5042937;28;20431;-67
2022/06/20 01:04:17;;;;;;;7.07;4.53;;;;;;;14.74;77.14;98452.28;5043296;28;20047;-72
2022/06/20 01:07:06;;;;;;;5.03;3.88;;;;;;;14.72;76.45;98465.00;5014956;28;20044;-69
2022/06/20 01:09:55;;;;;;;9.23;4.22;;;;;;;14.74;76.98;98464.84;5026704;28;20051;-68
2022/06/20 01:12:49;;;;;;;4.78;3.75;;;;;;;14.73;76.70;98442.53;5034918;28;20051;-68
2022/06/20 01:15:41;;;;;;;7.70;4.25;;;;;;;14.75;76.62;98439.69;5020603;28;20529;-62
2022/06/20 01:18:30;;;;;;;11.63;3.80;;;;;;;14.74;76.30;98446.06;5028002;28;20052;-61
2022/06/20 01:21:28;;;;;;;7.50;3.83;;;;;;;14.78;76.25;98440.22;5019785;28;20048;-62
2022/06/20 01:24:33;;;;;;;5.47;3.88;;;;;;;14.81;76.70;98437.19;5022651;28;20060;-63
2022/06/20 01:27:40;;;;;;;6.30;3.90;;;;;;;14.86;76.31;98455.47;5025243;28;20086;-62
2022/06/20 01:30:30;;;;;;;7.20;3.88;;;;;;;14.81;75.65;98464.00;5038697;28;20048;-62
2022/06/20 01:33:16;;;;;;;9.07;4.82;;;;;;;14.84;75.78;98476.28;5064529;27;20404;-62
2022/06/20 01:39:02;;;;;;;7.35;4.10;;;;;;;14.87;75.25;98463.38;5102702;27;20046;-62
2022/06/20 01:44:58;;;;;;;6.68;3.70;;;;;;;14.93;75.48;98439.53;5118720;27;20122;-69
2022/06/20 01:47:42;;;;;;;6.80;5.00;;;;;;;14.91;75.30;98426.28;5118415;27;20034;-66
2022/06/20 01:50:25;;;;;;;9.07;3.60;;;;;;;14.92;75.29;98421.75;5117386;27;20099;-65
2022/06/20 01:53:11;;;;;;;5.32;3.72;;;;;;;14.91;74.82;98426.28;5118700;27;20049;-66
2022/06/20 01:55:56;;;;;;;6.20;3.58;;;;;;;14.88;74.66;98419.44;5102340;27;20050;-65
2022/06/20 01:58:49;;;;;;;6.20;3.88;;;;;;;14.92;75.14;98411.88;5117616;27;20049;-64
2022/06/20 02:01:37;;;;;;;9.10;3.58;;;;;;;14.87;75.27;98419.59;5117572;27;20553;-65
2022/06/20 02:04:25;;;;;;;6.05;3.58;;;;;;;14.87;75.28;98427.66;5117470;27;20049;-64
2022/06/20 02:07:11;;;;;;;7.20;3.63;;;;;;;14.81;75.09;98423.75;5102042;27;20573;-65
2022/06/20 02:09:55;;;;;;;10.35;3.38;;;;;;;14.78;75.42;98429.50;5101651;27;20041;-63
2022/06/20 02:12:38;;;;;;;4.53;3.70;;;;;;;14.77;75.52;98433.19;5117263;27;20074;-64
2022/06/20 02:15:22;;;;;;;7.75;3.92;;;;;;;14.74;75.42;98436.19;5117196;27;20037;-64
2022/06/20 02:18:08;;;;;;;10.40;6.47;;;;;;;14.75;75.52;98447.75;5119780;27;20062;-73
2022/06/20 02:20:55;;;;;;;10.52;5.07;;;;;;;14.74;75.24;98460.31;5119950;27;20345;-66
2022/06/20 02:23:44;;;;;;;6.90;3.83;;;;;;;14.75;75.18;98464.69;5119401;27;20076;-69
2022/06/20 02:26:29;;;;;;;6.70;3.53;;;;;;;14.68;75.38;98463.66;5118346;27;20423;-69
2022/06/20 02:29:22;;;;;;;5.55;4.07;;;;;;;14.72;75.79;98446.22;5121541;27;20416;-70
2022/06/20 02:32:14;;;;;;;5.57;3.33;;;;;;;14.71;75.66;98444.53;5119796;27;20447;-71
2022/06/20 02:34:58;;;;;;;7.30;3.92;;;;;;;14.63;75.72;98425.75;5117309;27;20080;-71
2022/06/20 02:37:42;;;;;;;9.10;3.83;;;;;;;14.63;76.01;98403.47;5116704;27;20090;-67
2022/06/20 02:40:26;;;;;;;5.88;3.90;;;;;;;14.60;76.33;98401.09;5117544;27;20614;-72
2022/06/20 02:43:32;;;;;;;7.30;3.72;;;;;;;14.71;76.20;98390.91;5116655;27;20058;-68
2022/06/20 02:46:17;;;;;;;;;;;;;;;14.81;76.07;98383.53;5101411;27;20077;-66
2022/06/20 02:49:02;;;;;;;9.82;3.92;;;;;;;14.70;75.63;98386.53;5116391;27;19968;-67
2022/06/20 02:51:53;;;;;;;6.13;3.38;;;;;;;14.66;76.13;98393.25;5101102;27;20068;-67
2022/06/20 02:54:38;;;;;;;5.85;3.60;;;;;;;14.65;76.14;98415.72;5116778;27;20131;-67
2022/06/20 02:57:35;;;;;;;5.20;3.60;;;;;;;14.77;76.41;98426.97;5117373;27;20469;-71
2022/06/20 03:00:25;;;;;;;5.85;4.30;;;;;;;14.70;76.58;98416.03;5101712;27;20071;-72
2022/06/20 03:03:40;;;;;;;5.18;3.90;;;;;;;14.73;76.76;98414.88;5116054;27;20137;-67
2022/06/20 03:06:36;;;;;;;5.47;3.45;;;;;;;14.71;76.60;98401.63;5117066;27;20179;-69
2022/06/20 03:09:26;;;;;;;10.35;5.07;;;;;;;14.77;76.44;98382.19;5115960;27;20097;-69
2022/06/20 03:12:11;;;;;;;6.65;4.28;;;;;;;14.85;75.54;98378.66;5116758;27;20614;-68
2022/06/20 03:14:59;;;;;;;5.85;3.85;;;;;;;14.97;75.67;98380.00;5117011;27;20073;-66
2022/06/20 03:17:45;;;;;;;7.45;3.92;;;;;;;15.01;74.80;98396.63;5116344;27;20103;-63
2022/06/20 03:20:29;;;;;;;4.70;3.60;;;;;;;15.14;74.72;98411.19;5115343;27;20053;-62
2022/06/20 03:23:29;;;;;;;8.50;3.65;;;;;;;15.35;74.54;98399.94;5109549;27;20514;-61
2022/06/20 03:26:17;;;;;;;9.70;4.03;;;;;;;15.48;74.18;98396.72;5109591;27;20450;-61
2022/06/20 03:29:01;;;;;;;6.10;3.60;;;;;;;15.51;73.41;98405.28;5110394;27;20523;-61
2022/06/20 03:31:44;;;;;;;6.07;3.70;;;;;;;15.52;72.96;98390.84;5094267;27;20122;-62
2022/06/20 03:34:27;;;;;;;5.70;3.72;;;;;;;15.49;72.96;98384.97;5095176;27;20038;-61
2022/06/20 03:37:11;;;;;;;5.03;3.88;;;;;;;15.42;72.97;98405.47;5110273;27;20045;-62
2022/06/20 03:39:54;;;;;;;5.82;3.72;;;;;;;15.38;73.08;98404.13;5115241;27;20522;-62
2022/06/20 03:42:38;;;;;;;11.85;3.65;;;;;;;15.36;73.37;98415.03;5125254;27;20065;-63
2022/06/20 03:45:27;;;;;;;7.33;3.90;;;;;;;15.34;73.15;98409.03;5124545;27;20134;-62
2022/06/20 03:48:14;;;;;;;3.88;3.38;;;;;;;15.26;73.19;98417.06;5123088;27;20049;-62
2022/06/20 03:51:04;;;;;;;5.53;3.78;;;;;;;15.28;73.68;98415.06;5120045;27;20463;-62
2022/06/20 03:53:58;;;;;;;9.63;5.43;;;;;;;15.32;73.64;98440.56;5120000;27;20408;-62
2022/06/20 03:56:47;;;;;;;5.05;3.53;;;;;;;15.35;73.38;98434.84;5119822;27;20091;-63
2022/06/20 03:59:34;;;;;;;6.47;3.72;;;;;;;15.37;73.03;98429.31;5102510;27;20050;-63
2022/06/20 04:02:29;;;;;;;5.75;3.67;;;;;;;15.37;73.36;98413.19;5119714;27;20099;-61
2022/06/20 04:05:21;;;;;;;;;;;;;;;15.57;73.04;98401.97;5120081;27;20049;-62
2022/06/20 04:10:57;;;;;;;3.50;3.20;;;;;;;15.56;73.05;98418.25;5104350;27;20029;-68
2022/06/20 04:11:39;;;;;;;15.50;4.30;;;;;;;15.51;72.62;98393.72;5120031;27;20102;-67
2022/06/20 04:14:33;;;;;;;5.32;3.40;;;;;;;15.50;72.45;98414.34;5090054;27;20508;-68
2022/06/20 04:20:45;;;;;;;4.80;3.50;;;;;;;15.52;72.02;98411.50;5108931;27;20063;-68
2022/06/20 04:23:50;;;;;;;5.40;3.75;;;;;;;15.63;71.53;98404.97;5102607;27;20054;-68
2022/06/20 04:26:41;;;;;;;6.35;3.63;;;;;;;15.65;71.40;98389.50;5083317;27;20108;-69
2022/06/20 04:29:37;;;;;;;7.72;3.63;;;;;;;15.83;71.28;98396.34;5099812;27;20126;-68
2022/06/20 04:32:46;;;;;;;4.38;3.15;;;;;;;16.01;70.91;98395.28;5082062;27;20054;-67
2022/06/20 04:35:35;;;;;;;6.80;4.28;;;;;;;16.19;70.98;98420.06;5098205;27;20404;-67
2022/06/20 04:38:33;;;;;;;4.60;3.08;;;;;;;16.40;70.15;98427.50;5082815;27;20041;-68
2022/06/20 04:41:38;;;;;;;3.63;3.15;;;;;;;16.51;69.65;98427.94;5099359;27;20042;-69
2022/06/20 04:44:34;;;;;;;7.38;3.28;;;;;;;16.51;69.07;98424.44;5083162;27;20068;-68
2022/06/20 04:47:21;;;;;;;6.85;3.55;;;;;;;16.53;68.94;98403.56;5097832;27;20500;-69
2022/06/20 04:50:06;;;;;;;3.28;3.00;;;;;;;16.59;68.51;98400.19;5099359;27;20058;-69
2022/06/20 04:52:53;;;;;;;7.43;3.80;;;;;;;16.69;68.07;98390.91;5098599;27;20049;-69
2022/06/20 04:55:40;;;;;;;8.55;4.15;;;;;;;16.78;67.14;98391.66;5098538;27;20118;-69
2022/06/20 04:58:39;;;;;;;7.20;4.10;;;;;;;16.88;66.73;98391.41;5099229;27;20041;-69
2022/06/20 05:01:23;;;;;;;5.35;3.60;;;;;;;16.95;66.03;98395.91;5111594;27;20048;-68
2022/06/20 05:04:32;;;;;;;5.85;3.10;;;;;;;17.10;65.02;98401.34;5111813;27;20526;-71
2022/06/20 05:07:22;;;;;;;4.15;3.08;;;;;;;17.09;65.43;98396.97;5120793;27;20086;-69
2022/06/20 05:10:13;;;;;;;6.00;3.40;;;;;;;17.20;64.86;98407.31;5097854;27;20067;-70
2022/06/20 05:13:03;;;;;;;8.30;3.40;;;;;;;17.37;64.54;98403.47;5130724;27;20119;-72
2022/06/20 05:15:48;;;;;;;5.47;3.40;;;;;;;17.39;64.15;98419.41;5113010;27;20458;-68
2022/06/20 05:18:40;;;;;;;6.70;3.45;;;;;;;17.41;64.01;98434.38;5121829;27;20057;-68
2022/06/20 05:21:35;;;;;;;4.15;2.85;;;;;;;17.38;64.03;98440.13;5118589;27;20038;-69
2022/06/20 05:24:27;;;;;;;4.88;3.40;;;;;;;17.46;64.21;98441.94;5118607;27;20056;-63
2022/06/20 05:27:25;;;;;;;7.60;3.92;;;;;;;17.52;64.05;98441.19;5102008;27;20049;-64
2022/06/20 05:30:16;;;;;;;5.70;3.85;;;;;;;17.52;64.18;98454.66;5105576;27;20049;-63
2022/06/20 05:33:12;;;;;;;10.48;4.47;;;;;;;17.41;64.01;98447.03;5103210;27;20077;-63
2022/06/20 05:36:12;;;;;;;8.27;3.72;;;;;;;17.25;64.15;98460.66;5118043;27;20042;-63
2022/06/20 05:38:41;;;;;;;7.28;3.50;;;;;;;17.13;64.72;98480.94;5117865;27;20129;-63
2022/06/20 05:41:08;;;;;;;6.15;3.60;;;;;;;16.91;65.01;98498.75;5117517;27;20099;-63
2022/06/20 05:43:33;;;;;;;4.90;3.15;;;;;;;16.79;65.32;98497.47;5117897;27;20042;-64
2022/06/20 05:46:00;;;;;;;7.45;3.13;;;;;;;16.72;65.93;98502.72;5117445;27;20098;-63
2022/06/20 05:48:31;;;;;;;9.68;3.45;;;;;;;16.63;66.14;98493.84;5099063;27;20047;-68
2022/06/20 05:50:58;;;;;;;6.45;3.40;;;;;;;16.53;66.36;98487.81;5100868;27;20046;-68
2022/06/20 05:53:29;;;;;;;5.30;3.03;;;;;;;16.50;66.57;98498.06;5119099;27;20046;-68
2022/06/20 05:55:59;;;;;;;5.53;3.88;;;;;;;16.44;66.67;98515.78;5099421;27;20070;-67
2022/06/20 05:58:32;;;;;;;6.03;3.63;;;;;;;16.42;67.03;98516.94;5117854;27;20030;-68
2022/06/20 06:01:02;;;;;;;5.68;3.30;;;;;;;16.39;67.41;98498.47;5081640;27;20046;-67
2022/06/20 06:04:05;;;;;;;8.30;3.33;;;;;;;16.50;67.31;98501.59;5116992;27;20496;-69
2022/06/20 06:06:45;;;;;;;6.70;3.40;;;;;;;16.46;67.17;98489.53;5115881;27;20073;-68
2022/06/20 06:09:38;;;;;;;5.22;3.40;;;;;;;16.50;67.09;98481.94;5117624;27;20046;-69
2022/06/20 06:12:08;;;;;;;9.65;3.55;;;;;;;16.50;66.88;98479.25;5086539;27;20058;-68
2022/06/20 06:14:58;;;;;;;6.20;4.00;;;;;;;16.63;66.99;98468.78;5098068;27;20042;-64
2022/06/20 06:17:23;;;;;;;5.30;3.55;;;;;;;16.83;66.33;98461.94;5117040;27;20078;-64
2022/06/20 06:19:53;;;;;;;5.32;3.60;;;;;;;17.16;65.10;98462.53;5098416;27;20077;-63
2022/06/20 06:22:44;;;;;;;7.45;3.22;;;;;;;17.57;64.38;98459.53;5116658;27;20397;-63
2022/06/20 06:25:31;;;;;;;8.48;3.20;;;;;;;18.05;62.83;98447.44;5098122;27;20167;-62
2022/06/20 06:27:59;;;;;;;6.63;3.15;;;;;;;18.28;61.40;98441.94;5116218;27;20042;-63
2022/06/20 06:30:34;;;;;;;6.63;3.58;;;;;;;18.60;60.76;98432.59;5116563;27;20039;-63
2022/06/20 06:33:23;;;;;;;9.32;3.25;;;;;;;18.82;59.40;98434.31;5115726;27;20043;-62
2022/06/20 06:35:54;;;;;;;4.80;3.33;;;;;;;19.03;59.16;98453.22;5080345;27;20066;-62
2022/06/20 06:38:32;;;;;;;6.18;3.58;;;;;;;19.10;59.27;98459.50;5098052;27;20121;-63
2022/06/20 06:40:57;;;;;;;11.13;4.00;;;;;;;18.99;58.69;98459.19;5116042;27;20504;-63
2022/06/20 06:43:24;;;;;;;7.22;4.43;;;;;;;18.95;58.55;98466.03;5097378;27;20538;-62
2022/06/20 06:45:53;;;;;;;7.97;3.97;;;;;;;18.90;59.01;98463.03;5115643;27;20047;-69
2022/06/20 06:48:26;;;;;;;9.30;4.50;;;;;;;19.29;58.96;98463.47;5116005;27;20406;-70
2022/06/20 06:51:02;;;;;;;7.53;3.78;;;;;;;20.06;56.61;98466.16;5116345;27;20091;-63
2022/06/20 06:53:50;;;;;;;5.32;3.50;;;;;;;20.86;53.41;98464.69;5116300;27;20413;-70
2022/06/20 06:56:28;;;;;;;6.80;3.80;;;;;;;21.38;51.69;98455.84;5115601;27;20125;-64
2022/06/20 06:59:03;;;;;;;9.98;3.47;;;;;;;21.56;50.08;98466.06;5080548;27;20098;-64
2022/06/20 07:01:33;;;;;;;9.48;3.92;;;;;;;22.12;49.50;98480.09;5116309;27;20094;-63
2022/06/20 07:04:21;;;;;;;7.97;3.42;;;;;;;23.09;47.83;98477.22;5087067;27;20047;-62
2022/06/20 07:07:01;;;;;;;5.50;3.72;;;;;;;24.54;45.06;98489.63;5045715;27;20417;-63
2022/06/20 07:09:31;;;;;;;8.85;3.90;;;;;;;25.60;41.69;98485.50;5095093;27;20400;-63
2022/06/20 07:12:05;;;;;;;8.35;4.38;;;;;;;26.21;40.78;98493.31;5076818;27;20043;-63
2022/06/20 07:14:38;;;;;;;7.35;3.20;;;;;;;26.17;39.54;98485.84;5076926;28;20047;-62
2022/06/20 07:17:28;;;;;;;6.43;3.88;;;;;;;26.21;39.34;98484.28;5094900;27;20142;-63
2022/06/20 07:19:54;;;;;;;6.40;3.88;;;;;;;26.53;39.62;98496.50;5077057;27;20042;-66
2022/06/20 07:22:22;;;;;;;8.38;4.50;;;;;;;27.64;37.52;98503.44;5095791;27;20081;-65
2022/06/20 07:24:49;;;;;;;4.97;3.78;;;;;;;29.02;33.83;98509.91;5077484;28;20048;-66
2022/06/20 07:27:20;;;;;;;4.00;3.60;;;;;;;30.89;31.43;98509.91;5095718;28;20134;-65
2022/06/20 07:30:12;;;;;;;5.50;4.28;;;;;;;32.94;28.32;98505.13;5095627;28;20069;-65
2022/06/20 07:32:49;;;;;;;9.20;3.90;;;;;;;34.77;26.20;98499.88;5095208;28;20042;-64
2022/06/20 07:35:19;;;;;;;5.07;4.28;;;;;;;35.71;23.58;98513.06;5095961;28;20043;-64
2022/06/20 07:37:51;;;;;;;7.32;3.97;;;;;;;36.06;23.39;98504.22;5077016;28;20326;-64
2022/06/20 07:40:31;;;;;;;6.88;4.95;;;;;;;36.61;23.62;98509.91;5095537;28;20074;-64
2022/06/20 07:43:08;;;;;;;7.20;3.95;;;;;;;37.81;21.77;98513.25;5095875;28;20046;-64
2022/06/20 07:45:42;;;;;;;7.57;5.00;;;;;;;39.81;19.03;98525.81;5077171;28;20408;-65
2022/06/20 07:48:16;;;;;;;5.70;4.13;;;;;;;41.32;18.22;98510.44;5077415;28;20062;-66
2022/06/20 07:50:54;;;;;;;8.32;4.50;;;;;;;41.93;17.01;98518.41;5096521;28;20493;-65
2022/06/20 07:53:21;;;;;;;7.85;4.90;;;;;;;41.50;17.31;98510.34;5104122;27;20038;-66
2022/06/20 07:55:56;;;;;;;5.78;5.18;;;;;;;41.01;18.24;98515.53;5116242;27;20046;-65
2022/06/20 07:58:27;;;;;;;9.50;5.88;;;;;;;39.61;18.46;98517.25;5098147;27;20034;-66
2022/06/20 08:00:53;;;;;;;8.93;5.60;;;;;;;38.56;19.51;98497.72;5097837;27;20516;-63
2022/06/20 08:03:32;;;;;;;7.78;4.85;;;;;;;38.02;19.74;98508.81;5116252;27;20046;-64
2022/06/20 08:06:17;;;;;;;7.35;4.30;;;;;;;37.13;20.83;98516.13;5115863;27;20551;-65
2022/06/20 08:08:47;;;;;;;10.52;6.88;;;;;;;37.16;20.72;98521.91;5119360;27;20039;-64
2022/06/20 08:11:41;;;;;;;8.38;5.28;;;;;;;37.24;21.01;98531.47;5123844;27;20038;-62
2022/06/20 08:14:33;;;;;;;9.25;4.40;;;;;;;37.35;20.90;98525.41;5127967;27;20047;-64
2022/06/20 08:17:01;;;;;;;8.30;3.97;;;;;;;37.51;21.12;98527.81;5116264;27;20049;-63
2022/06/20 08:19:29;;;;;;;7.53;4.72;;;;;;;37.49;20.52;98522.56;5115921;27;20039;-64
2022/06/20 08:22:07;;;;;;;8.43;5.60;;;;;;;38.11;20.20;98523.66;5116237;27;20069;-65
2022/06/20 08:24:57;;;;;;;5.75;3.90;;;;;;;39.19;18.74;98516.81;5116344;27;20038;-64
2022/06/20 08:28:03;;;;;;;8.57;5.13;;;;;;;39.90;18.81;98526.66;5097131;27;20119;-69
2022/06/20 08:30:39;;;;;;;7.40;4.57;;;;;;;39.94;17.92;98523.19;5015738;28;20061;-70
2022/06/20 08:33:10;;;;;;;8.30;4.68;;;;;;;39.28;17.56;98514.06;5016542;28;20503;-71
2022/06/20 08:35:39;;;;;;;8.75;5.00;;;;;;;38.28;19.23;98514.56;5017551;28;20502;-70
2022/06/20 08:38:13;;;;;;;5.43;4.22;;;;;;;38.44;18.80;98518.59;5020663;28;20052;-69
2022/06/20 08:41:08;;;;;;;6.85;4.30;;;;;;;38.08;18.89;98520.66;5019174;28;20411;-71
2022/06/20 08:43:33;;;;;;;7.05;4.15;;;;;;;37.89;19.16;98515.25;5019199;28;20617;-70
2022/06/20 08:46:01;;;;;;;7.03;4.82;;;;;;;39.11;18.03;98526.81;5016184;28;20507;-69
2022/06/20 08:48:53;;;;;;;7.55;5.35;;;;;;;40.65;17.02;98521.59;5000651;28;20052;-69
2022/06/20 08:52:07;;;;;;;8.80;5.28;;;;;;;42.16;15.18;98521.69;5015655;28;20074;-68
2022/06/20 08:54:50;;;;;;;6.55;5.57;;;;;;;42.37;14.79;98500.88;5015668;28;20049;-69
2022/06/20 08:57:19;;;;;;;6.07;5.47;;;;;;;42.24;14.61;98506.78;5015670;28;20593;-70
2022/06/20 08:59:57;;;;;;;5.68;5.05;;;;;;;42.78;14.70;98501.13;4999142;28;20048;-70
2022/06/20 09:02:31;;;;;;;6.15;5.65;;;;;;;42.09;14.93;98499.03;4982424;28;20055;-69
2022/06/20 09:05:35;;;;;;;7.18;5.25;;;;;;;42.32;14.53;98528.28;4998615;28;20458;-69
2022/06/20 09:08:18;;;;;;;10.18;4.78;;;;;;;41.14;14.90;98531.31;5095286;27;20442;-69
2022/06/20 09:11:01;;;;;;;5.00;4.50;;;;;;;39.42;15.54;98528.72;5096194;27;20119;-72
2022/06/20 09:13:42;;;;;;;7.38;4.80;;;;;;;37.38;17.89;98523.91;5080779;27;20493;-72
2022/06/20 09:16:34;;;;;;;5.35;4.25;;;;;;;36.81;18.49;98509.53;5079801;27;20038;-71
2022/06/20 09:19:14;;;;;;;7.30;4.22;;;;;;;35.70;18.57;98503.09;5102612;27;20067;-70
2022/06/20 09:22:11;;;;;;;8.13;4.15;;;;;;;34.97;19.42;98509.09;5099146;27;20123;-70
2022/06/20 09:24:47;;;;;;;6.40;3.60;;;;;;;33.64;20.32;98508.59;5099853;27;20046;-69
2022/06/20 09:27:28;;;;;;;5.25;4.15;;;;;;;32.61;21.68;98509.34;5080420;27;20442;-70
2022/06/20 09:30:05;;;;;;;6.10;3.70;;;;;;;31.50;23.26;98501.84;5099391;27;20042;-70
2022/06/20 09:32:45;;;;;;;10.07;3.65;;;;;;;30.58;23.97;98492.44;5099096;27;20411;-69
2022/06/20 09:35:48;;;;;;;6.07;2.88;;;;;;;30.12;24.77;98469.28;5079891;27;20069;-71
2022/06/20 09:38:27;;;;;;;6.55;4.13;;;;;;;29.56;25.65;98491.59;5095300;27;20107;-69
2022/06/20 09:41:05;;;;;;;4.10;3.25;;;;;;;28.95;25.63;98486.50;5097195;27;20039;-69
2022/06/20 09:43:49;;;;;;;4.68;3.17;;;;;;;28.35;26.19;98493.63;5097319;27;20051;-69
2022/06/20 09:46:30;;;;;;;5.97;3.08;;;;;;;27.79;27.02;98484.50;5078705;27;20142;-70
2022/06/20 09:49:09;;;;;;;4.50;2.75;;;;;;;27.81;27.01;98487.00;5097306;27;20121;-69
2022/06/20 09:52:07;;;;;;;3.38;2.45;;;;;;;28.63;26.05;98489.91;5078502;27;20042;-70
2022/06/20 09:54:53;;;;;;;3.92;2.95;;;;;;;28.73;25.65;98490.06;5079011;27;20134;-70
2022/06/20 09:58:00;;;;;;;4.57;3.60;;;;;;;28.45;25.90;98501.16;5078391;27;20039;-64
2022/06/20 10:00:38;;;;;;;8.52;3.65;;;;;;;27.89;26.64;98493.97;5097781;27;20046;-64
2022/06/20 10:03:32;;;;;;;3.38;3.00;;;;;;;27.44;27.30;98495.63;5078580;27;20047;-65
2022/06/20 10:06:06;;;;;;;2.67;2.45;;;;;;;27.43;27.65;98501.34;5033565;28;20489;-64
2022/06/20 10:08:43;;;;;;;11.75;3.58;;;;;;;27.24;27.76;98488.97;5047573;28;20405;-65
2022/06/20 10:11:16;;;;;;;9.48;3.33;;;;;;;26.87;28.32;98486.56;5033929;28;20572;-63
2022/06/20 10:14:05;;;;;;;7.23;3.13;;;;;;;26.62;28.49;98481.44;5029267;28;20039;-64
2022/06/20 10:16:43;;;;;;;5.32;2.65;;;;;;;26.54;28.02;98472.75;5054493;28;20109;-64
2022/06/20 10:19:12;;;;;;;6.88;3.35;;;;;;;26.45;28.24;98488.69;5036835;28;20533;-63
2022/06/20 10:21:44;;;;;;;5.63;2.58;;;;;;;26.54;28.75;98497.34;5054502;28;20397;-63
2022/06/20 10:24:48;;;;;;;5.93;3.65;;;;;;;26.77;28.50;98505.50;5054100;28;20048;-63
2022/06/20 10:27:37;;;;;;;5.22;3.17;;;;;;;26.65;28.52;98502.78;5054025;28;20083;-64
2022/06/20 10:30:13;;;;;;;4.82;2.97;;;;;;;26.33;28.75;98494.16;5054011;28;20135;-65
2022/06/20 10:32:52;;;;;;;4.38;2.97;;;;;;;26.21;28.43;98496.03;5054035;28;20114;-65
2022/06/20 10:35:38;;;;;;;7.18;3.90;;;;;;;25.77;29.26;98502.88;5036586;28;20211;-64
2022/06/20 10:38:08;;;;;;;3.20;2.90;;;;;;;25.42;29.35;98502.78;5053121;28;20858;-64
2022/06/20 10:40:37;;;;;;;4.15;2.40;;;;;;;25.18;30.31;98509.19;5055894;28;20036;-63
2022/06/20 10:43:09;;;;;;;7.88;3.50;;;;;;;24.95;30.49;98504.47;5071370;27;20046;-64
2022/06/20 10:45:44;;;;;;;4.47;2.78;;;;;;;24.66;31.68;98511.50;5096954;27;20070;-64
2022/06/20 10:48:47;;;;;;;6.82;3.03;;;;;;;24.54;31.77;98505.16;5096769;27;20046;-63
2022/06/20 10:51:49;;;;;;;3.88;2.78;;;;;;;24.52;32.07;98510.81;4993102;28;20089;-63
2022/06/20 10:54:32;;;;;;;4.85;3.30;;;;;;;24.46;32.46;98511.75;4976871;28;20518;-64
2022/06/20 10:57:21;;;;;;;11.02;3.05;;;;;;;24.35;32.08;98503.50;4993855;28;20045;-64
2022/06/20 11:00:00;;;;;;;4.90;2.90;;;;;;;23.96;32.40;98499.22;4993529;28;20555;-64
2022/06/20 11:02:24;;;;;;;8.45;4.97;;;;;;;23.75;33.17;98489.56;4977327;28;20045;-62
2022/06/20 11:05:00;;;;;;;4.70;3.08;;;;;;;23.79;32.81;98493.50;4993174;28;20056;-63
2022/06/20 11:07:33;;;;;;;5.38;2.67;;;;;;;23.70;32.88;98490.22;4992887;28;20053;-64
2022/06/20 11:10:23;;;;;;;7.20;3.97;;;;;;;23.68;33.11;98494.22;4996410;28;20060;-65
2022/06/20 11:13:00;;;;;;;6.38;3.40;;;;;;;23.61;33.25;98496.16;4996785;28;20288;-69
2022/06/20 11:15:45;;;;;;;4.05;3.00;;;;;;;23.66;33.46;98488.16;4997036;28;20467;-68
2022/06/20 11:18:49;;;;;;;7.18;3.50;;;;;;;23.71;33.41;98483.72;5012538;28;20474;-69
2022/06/20 11:21:29;;;;;;;8.50;3.95;;;;;;;23.68;34.26;98483.34;5013544;28;20541;-68
2022/06/20 11:24:15;;;;;;;9.32;2.95;;;;;;;23.52;33.74;98487.44;4980588;28;20052;-69
2022/06/20 11:27:08;;;;;;;4.97;2.85;;;;;;;23.46;34.06;98485.56;4975038;27;20121;-68
2022/06/20 11:29:40;;;;;;;4.07;3.10;;;;;;;23.32;34.33;98487.53;5117453;27;20518;-71
2022/06/20 11:32:27;;;;;;;7.43;2.97;;;;;;;23.32;34.80;98484.81;5098456;27;20038;-67
2022/06/20 11:35:04;;;;;;;7.18;3.95;;;;;;;23.23;34.74;98471.72;5116527;27;20039;-70
2022/06/20 11:37:45;;;;;;;6.03;2.85;;;;;;;23.29;34.48;98476.25;5116442;27;20035;-70
2022/06/20 11:40:40;;;;;;;9.30;4.70;;;;;;;23.15;34.75;98480.94;5080655;27;20162;-70
2022/06/20 11:43:05;;;;;;;7.72;5.47;;;;;;;22.96;34.79;98477.28;5116627;27;20100;-70
2022/06/20 11:45:43;;;;;;;4.93;3.00;;;;;;;23.05;34.75;98480.59;5097751;27;20054;-63
2022/06/20 11:48:24;;;;;;;5.55;2.90;;;;;;;23.05;35.21;98480.59;5093886;28;20051;-63
2022/06/20 11:51:10;;;;;;;3.13;2.65;;;;;;;23.08;34.89;98481.00;5096052;27;20118;-63
2022/06/20 11:53:59;;;;;;;3.95;2.45;;;;;;;23.25;35.07;98478.56;5095854;27;20050;-62
2022/06/20 11:57:13;;;;;;;5.25;3.47;;;;;;;23.64;34.47;98480.22;5097608;27;20106;-63
2022/06/20 11:59:38;;;;;;;6.78;3.13;;;;;;;23.75;34.42;98478.66;5107711;27;20050;-64
2022/06/20 12:02:25;;;;;;;6.53;3.90;;;;;;;24.07;34.38;98469.38;5116104;27;20054;-64
2022/06/20 12:05:18;;;;;;;6.57;4.57;;;;;;;24.15;34.63;98484.59;5119520;27;20050;-62
2022/06/20 12:07:47;;;;;;;9.35;4.47;;;;;;;23.98;34.82;98481.59;5120392;27;20069;-63
2022/06/20 12:10:22;;;;;;;7.18;3.88;;;;;;;24.05;34.61;98481.53;5119612;27;20417;-62
2022/06/20 12:13:05;;;;;;;5.57;3.03;;;;;;;24.10;34.90;98487.16;5118474;27;20038;-61
2022/06/20 12:15:36;;;;;;;4.55;2.95;;;;;;;24.00;34.87;98474.06;5118527;27;20045;-61
2022/06/20 12:18:07;;;;;;;5.07;3.20;;;;;;;23.87;35.07;98485.06;5119150;27;20051;-62
2022/06/20 12:23:33;;;;;;;9.85;3.92;;;;;;;23.64;34.87;98498.44;5119448;27;20523;-62
2022/06/20 12:26:00;;;;;;;25.60;15.20;;;;;;;23.35;35.84;98489.84;5101144;27;20072;-62
2022/06/20 12:28:40;;;;;;;34.90;22.15;;;;;;;23.15;36.89;98494.53;5121640;27;20083;-62
2022/06/20 12:31:08;;;;;;;7.88;4.82;;;;;;;22.94;36.75;98497.56;5120017;27;20038;-62
2022/06/20 12:33:36;;;;;;;5.65;3.83;;;;;;;22.70;36.93;98496.41;5123634;27;20130;-62
2022/06/20 12:36:39;;;;;;;4.82;3.08;;;;;;;22.61;37.26;98511.28;5103206;27;20035;-61
2022/06/20 12:39:13;;;;;;;6.63;3.22;;;;;;;22.33;38.69;98506.13;5015273;28;20032;-62
2022/06/20 12:41:42;;;;;;;5.13;3.35;;;;;;;22.20;38.58;98506.16;5025651;28;20206;-61
2022/06/20 12:44:39;;;;;;;5.88;3.38;;;;;;;22.23;38.92;98503.88;5023220;28;20065;-62
2022/06/20 12:47:29;;;;;;;4.65;3.00;;;;;;;22.19;39.37;98512.63;4947470;28;20118;-61
2022/06/20 12:50:24;;;;;;;8.50;4.85;;;;;;;22.22;41.33;98513.06;4945928;28;20461;-63
2022/06/20 12:53:17;;;;;;;14.45;5.53;;;;;;;22.14;43.33;98523.28;4944440;28;20034;-62
2022/06/20 12:55:57;;;;;;;11.90;4.90;;;;;;;21.64;47.32;98528.28;4945132;28;20065;-61
2022/06/20 12:58:41;;;;;;;9.80;5.93;;;;;;;21.65;47.11;98521.81;4946593;28;20042;-62
2022/06/20 13:01:31;;;;;;;14.32;7.30;;;;;;;21.74;47.23;98521.41;4947228;28;20079;-61